Wabek, North Dakota
Current Conditions -  °F | °C
As of 2:55 AM on Monday 22 Dec 2014 (Local Time) from K08D Reporting Station
Overcast Overcast  
Wind Chill: 21°   Ceiling: 9500
Heat Index: 27°   Visibility: 9mi
Dew Point: 27°   Wind: 5mph
Humidity: 100%   Direction: 90°E
Pressure: 29.41"   Gusts: NA
Location:  48.0227°N, 101.961°W
Report Text: K08D 220855Z AUTO 09004KT 9SM FEW006 SCT033 OVC095 M03/M03 A2941 RMK AO2
Loading
Personal Weather Stations






























Interactive Weather Map New forecast layout! Learn more

10-Day Weather Forecast

Advertisements
Track Severe Weather on mobile